createdAt,value
2023-03-11T00:01:27.007Z,6.90
2023-03-11T00:03:54.917Z,10.27
2023-03-11T00:06:24.199Z,7.20
2023-03-11T00:08:52.402Z,7.00
2023-03-11T00:11:22.492Z,11.33
2023-03-11T00:13:50.475Z,9.90
2023-03-11T00:16:18.357Z,7.43
2023-03-11T00:18:46.306Z,8.33
2023-03-11T00:21:17.390Z,7.77
2023-03-11T00:23:46.808Z,8.37
2023-03-11T00:26:15.342Z,7.47
2023-03-11T00:28:43.225Z,7.50
2023-03-11T00:31:13.054Z,6.83
2023-03-11T00:33:41.083Z,6.73
2023-03-11T00:36:12.653Z,6.43
2023-03-11T00:38:40.622Z,7.30
2023-03-11T00:41:10.003Z,7.23
2023-03-11T00:43:38.762Z,7.67
2023-03-11T00:46:06.698Z,6.43
2023-03-11T00:48:34.679Z,7.77
2023-03-11T00:51:02.577Z,6.57
2023-03-11T00:53:30.504Z,8.03
2023-03-11T00:55:58.557Z,7.60
2023-03-11T00:58:30.753Z,7.10
2023-03-11T01:00:58.731Z,8.60
2023-03-11T01:03:26.661Z,7.97
2023-03-11T01:05:54.623Z,6.60
2023-03-11T01:08:22.539Z,9.87
2023-03-11T01:10:50.449Z,10.60
2023-03-11T01:13:18.408Z,8.30
2023-03-11T01:15:47.709Z,7.33
2023-03-11T01:18:16.035Z,6.97
2023-03-11T01:20:44.169Z,6.63
2023-03-11T01:23:12.565Z,7.37
2023-03-11T01:25:40.736Z,7.07
2023-03-11T01:28:09.349Z,7.07
2023-03-11T01:30:39.173Z,6.17
2023-03-11T01:33:09.601Z,6.87
2023-03-11T01:35:40.046Z,6.50
2023-03-11T01:38:07.992Z,6.93
2023-03-11T01:40:37.699Z,6.27
2023-03-11T01:43:07.979Z,6.27
2023-03-11T01:45:43.786Z,6.53
2023-03-11T01:48:13.130Z,7.00
2023-03-11T01:50:44.783Z,6.43
2023-03-11T01:53:13.952Z,6.73
2023-03-11T01:55:42.033Z,7.40
2023-03-11T01:58:13.263Z,7.43
2023-03-11T02:00:41.294Z,9.13
2023-03-11T02:03:13.150Z,7.80
2023-03-11T02:05:41.817Z,7.13
2023-03-11T02:08:10.015Z,6.73
2023-03-11T02:10:39.029Z,7.17
2023-03-11T02:13:07.096Z,8.07
2023-03-11T02:15:35.031Z,7.00
2023-03-11T02:18:04.868Z,8.40
2023-03-11T02:20:42.145Z,10.20
2023-03-11T02:23:10.249Z,7.43
2023-03-11T02:25:43.100Z,8.20
2023-03-11T02:28:14.209Z,6.27
2023-03-11T02:30:43.655Z,6.27
2023-03-11T02:33:12.186Z,6.67
2023-03-11T02:35:40.199Z,6.73
2023-03-11T02:38:08.362Z,5.80
2023-03-11T02:40:57.164Z,5.17
2023-03-11T02:43:31.378Z,6.53
2023-03-11T02:45:59.757Z,5.43
2023-03-11T02:48:27.764Z,7.03
2023-03-11T02:50:55.797Z,7.27
2023-03-11T02:53:23.760Z,6.90
2023-03-11T02:55:51.656Z,6.53
2023-03-11T02:58:19.634Z,7.00
2023-03-11T03:00:49.023Z,5.93
2023-03-11T03:03:16.996Z,7.27
2023-03-11T03:05:46.024Z,6.60
2023-03-11T03:08:13.977Z,8.10
2023-03-11T03:10:41.886Z,5.87
2023-03-11T03:13:09.875Z,5.33
2023-03-11T03:15:37.853Z,6.27
2023-03-11T03:18:07.289Z,6.80
2023-03-11T03:20:35.368Z,6.07
2023-03-11T03:23:03.375Z,5.83
2023-03-11T03:25:31.539Z,5.63
2023-03-11T03:27:59.474Z,6.00
2023-03-11T03:30:28.439Z,6.33
2023-03-11T03:32:56.347Z,5.53
2023-03-11T03:35:25.722Z,5.07
2023-03-11T03:37:53.623Z,5.43
2023-03-11T03:40:21.585Z,5.77
2023-03-11T03:42:49.735Z,5.70
2023-03-11T03:45:17.998Z,4.80
2023-03-11T03:47:45.915Z,5.37
2023-03-11T03:50:14.391Z,5.37
2023-03-11T03:52:43.695Z,4.23
2023-03-11T03:55:11.975Z,5.60
2023-03-11T03:57:39.916Z,5.60
2023-03-11T04:00:10.162Z,5.83
2023-03-11T04:02:38.176Z,4.37
2023-03-11T04:05:07.169Z,5.83
2023-03-11T04:07:35.806Z,5.27
2023-03-11T04:10:05.938Z,5.47
2023-03-11T04:12:33.979Z,5.33
2023-03-11T04:15:01.885Z,4.97
2023-03-11T04:17:29.759Z,5.17
2023-03-11T04:19:57.731Z,4.47
2023-03-11T04:22:25.642Z,5.13
2023-03-11T04:24:53.557Z,4.70
2023-03-11T04:27:22.869Z,5.00
2023-03-11T04:29:50.757Z,4.40
2023-03-11T04:32:18.670Z,5.13
2023-03-11T04:34:46.647Z,4.53
2023-03-11T04:37:14.568Z,5.00
2023-03-11T04:39:42.495Z,4.23
2023-03-11T04:42:10.454Z,4.30
2023-03-11T04:44:39.869Z,4.40
2023-03-11T04:47:07.885Z,4.30
2023-03-11T04:49:35.849Z,4.60
2023-03-11T04:52:03.787Z,4.30
2023-03-11T04:54:31.712Z,3.90
2023-03-11T04:56:59.666Z,4.23
2023-03-11T04:59:27.543Z,3.90
2023-03-11T05:01:56.808Z,3.53
2023-03-11T05:04:24.825Z,3.60
2023-03-11T05:06:52.753Z,3.77
2023-03-11T05:09:20.686Z,3.80
2023-03-11T05:11:48.642Z,3.43
2023-03-11T05:14:16.549Z,3.27
2023-03-11T05:16:44.474Z,3.83
2023-03-11T05:19:32.087Z,3.80
2023-03-11T05:22:00.233Z,3.70
2023-03-11T05:24:28.737Z,3.80
2023-03-11T05:26:57.043Z,3.30
2023-03-11T05:29:25.248Z,4.13
2023-03-11T05:31:53.641Z,3.90
2023-03-11T05:34:23.066Z,3.50
2023-03-11T05:36:50.972Z,3.67
2023-03-11T05:39:18.871Z,3.93
2023-03-11T05:41:46.832Z,3.77
2023-03-11T05:44:14.805Z,3.00
2023-03-11T05:46:42.720Z,3.47
2023-03-11T05:49:10.753Z,4.20
2023-03-11T05:51:40.441Z,3.60
2023-03-11T05:54:14.930Z,3.60
2023-03-11T05:56:43.093Z,4.10
2023-03-11T05:59:11.498Z,3.47
2023-03-11T06:01:39.791Z,4.13
2023-03-11T06:04:08.192Z,3.43
2023-03-11T06:06:36.209Z,3.73
2023-03-11T06:09:05.588Z,3.80
2023-03-11T06:11:33.630Z,4.07
2023-03-11T06:14:01.523Z,3.53
2023-03-11T06:16:29.534Z,3.23
2023-03-11T06:19:00.686Z,3.33
2023-03-11T06:21:28.762Z,3.33
2023-03-11T06:23:56.780Z,4.27
2023-03-11T06:26:26.372Z,3.23
2023-03-11T06:28:54.490Z,3.80
2023-03-11T06:31:24.398Z,3.47
2023-03-11T06:33:52.737Z,3.20
2023-03-11T06:36:21.461Z,3.97
2023-03-11T06:38:50.190Z,3.67
2023-03-11T06:41:18.157Z,3.60
2023-03-11T06:43:47.504Z,3.60
2023-03-11T06:46:17.686Z,3.80
2023-03-11T06:48:46.937Z,3.53
2023-03-11T06:51:15.300Z,3.47
2023-03-11T06:53:43.340Z,3.40
2023-03-11T06:56:12.870Z,4.10
2023-03-11T06:58:42.605Z,3.47
2023-03-11T07:01:13.818Z,3.87
2023-03-11T07:03:41.820Z,3.10
2023-03-11T07:06:13.180Z,3.43
2023-03-11T07:08:41.105Z,2.93
2023-03-11T07:11:11.139Z,3.63
2023-03-11T07:13:39.070Z,3.23
2023-03-11T07:16:08.618Z,3.40
2023-03-11T07:18:38.368Z,3.70
2023-03-11T07:21:08.081Z,3.83
2023-03-11T07:23:37.025Z,3.60
2023-03-11T07:26:05.191Z,4.57
2023-03-11T07:28:33.343Z,6.47
2023-03-11T07:31:01.229Z,5.93
2023-03-11T07:33:29.378Z,5.77
2023-03-11T07:35:58.720Z,6.60
2023-03-11T07:38:26.664Z,6.47
2023-03-11T07:40:59.706Z,6.53
2023-03-11T07:43:27.980Z,7.30
2023-03-11T07:46:04.410Z,6.80
2023-03-11T07:48:32.608Z,5.73
2023-03-11T07:51:07.158Z,4.53
2023-03-11T07:53:35.490Z,4.77
2023-03-11T07:56:03.956Z,4.80
2023-03-11T07:58:32.310Z,4.07
2023-03-11T08:01:06.938Z,5.20
2023-03-11T08:03:34.983Z,6.00
2023-03-11T08:06:02.938Z,6.03
2023-03-11T08:08:32.206Z,6.50
2023-03-11T08:11:04.589Z,4.97
2023-03-11T08:13:32.516Z,4.87
2023-03-11T08:16:00.503Z,4.53
2023-03-11T08:18:28.608Z,4.70
2023-03-11T08:24:00.760Z,4.13
2023-03-11T08:26:29.099Z,4.33
2023-03-11T08:28:57.433Z,4.27
2023-03-11T08:31:27.040Z,3.77
2023-03-11T08:33:58.233Z,3.50
2023-03-11T08:36:26.393Z,4.37
2023-03-11T08:38:54.656Z,3.87
2023-03-11T08:41:24.229Z,4.00
2023-03-11T08:43:52.485Z,3.63
2023-03-11T08:46:25.393Z,4.37
2023-03-11T08:48:53.861Z,3.63
2023-03-11T08:51:22.225Z,3.63
2023-03-11T08:53:53.160Z,3.40
2023-03-11T08:56:23.765Z,3.83
2023-03-11T08:58:52.016Z,4.77
2023-03-11T09:01:20.559Z,3.40
2023-03-11T09:03:48.759Z,3.27
2023-03-11T09:06:19.828Z,3.20
2023-03-11T09:09:11.131Z,3.17
2023-03-11T09:11:41.704Z,3.50
2023-03-11T09:14:09.622Z,3.03
2023-03-11T09:16:52.709Z,3.87
2023-03-11T09:19:20.698Z,3.10
2023-03-11T09:21:48.622Z,3.03
2023-03-11T09:24:16.540Z,3.13
2023-03-11T09:26:45.862Z,3.80
2023-03-11T09:29:13.772Z,3.63
2023-03-11T09:31:41.730Z,3.63
2023-03-11T09:34:09.691Z,2.97
2023-03-11T09:36:37.584Z,3.23
2023-03-11T09:39:05.547Z,3.40
2023-03-11T09:41:47.848Z,3.00
2023-03-11T09:44:30.168Z,3.50
2023-03-11T09:47:34.418Z,3.10
2023-03-11T09:50:25.235Z,2.57
2023-03-11T09:53:00.105Z,2.90
2023-03-11T09:55:40.200Z,3.50
2023-03-11T09:58:13.721Z,3.43
2023-03-11T10:00:43.250Z,3.07
2023-03-11T10:03:19.624Z,3.13
2023-03-11T10:05:47.581Z,3.07
2023-03-11T10:08:22.969Z,2.37
2023-03-11T10:10:56.057Z,2.53
2023-03-11T10:13:29.706Z,2.67
2023-03-11T10:16:05.260Z,2.50
2023-03-11T10:18:47.799Z,2.47
2023-03-11T10:21:23.832Z,2.20
2023-03-11T10:24:01.644Z,2.40
2023-03-11T10:26:32.903Z,2.90
2023-03-11T10:29:05.013Z,2.33
2023-03-11T10:31:38.582Z,2.47
2023-03-11T10:34:14.010Z,2.67
2023-03-11T10:36:55.317Z,2.20
2023-03-11T10:39:24.029Z,2.50
2023-03-11T10:41:55.279Z,2.03
2023-03-11T10:44:27.373Z,2.73
2023-03-11T10:46:56.643Z,2.40
2023-03-11T10:49:24.561Z,2.83
2023-03-11T10:51:53.695Z,2.70
2023-03-11T10:54:25.345Z,2.50
2023-03-11T10:56:57.387Z,3.07
2023-03-11T10:59:30.858Z,2.50
2023-03-11T11:02:04.532Z,2.30
2023-03-11T11:04:37.207Z,2.30
2023-03-11T11:07:30.218Z,2.20
2023-03-11T11:10:19.678Z,1.67
2023-03-11T11:12:56.996Z,1.67
2023-03-11T11:15:27.107Z,1.87
2023-03-11T11:18:07.803Z,1.60
2023-03-11T11:20:56.642Z,1.73
2023-03-11T11:24:03.384Z,1.37
2023-03-11T11:26:31.329Z,1.90
2023-03-11T11:29:14.547Z,1.60
2023-03-11T11:31:44.020Z,1.70
2023-03-11T11:34:30.403Z,2.00
2023-03-11T11:37:00.158Z,2.30
2023-03-11T11:39:30.601Z,1.80
2023-03-11T11:41:58.540Z,1.80
2023-03-11T11:44:31.699Z,1.53
2023-03-11T11:47:03.151Z,1.70
2023-03-11T11:49:35.850Z,1.70
2023-03-11T11:52:07.287Z,1.93
2023-03-11T11:54:39.777Z,1.60
2023-03-11T11:57:13.425Z,2.00
2023-03-11T11:59:41.608Z,1.53
2023-03-11T12:02:21.150Z,2.17
2023-03-11T12:04:56.313Z,1.70
2023-03-11T12:07:36.460Z,1.53
2023-03-11T12:10:23.004Z,1.33
2023-03-11T12:13:08.540Z,1.73
2023-03-11T12:15:40.473Z,1.50
2023-03-11T12:18:13.200Z,1.67
2023-03-11T12:20:45.029Z,1.60
2023-03-11T12:23:19.812Z,1.50
2023-03-11T12:25:59.844Z,1.40
2023-03-11T12:28:36.400Z,1.70
2023-03-11T12:31:07.009Z,1.90
2023-03-11T12:33:38.136Z,1.63
2023-03-11T12:36:10.373Z,1.60
2023-03-11T12:38:40.767Z,1.13
2023-03-11T12:41:09.883Z,1.40
2023-03-11T12:44:03.161Z,1.20
2023-03-11T12:47:01.697Z,1.57
2023-03-11T12:49:31.706Z,1.33
2023-03-11T12:52:06.055Z,1.30
2023-03-11T12:54:35.665Z,1.10
2023-03-11T12:57:06.618Z,0.97
2023-03-11T12:59:51.696Z,0.93
2023-03-11T13:02:31.372Z,1.10
2023-03-11T13:05:01.186Z,1.90
2023-03-11T13:07:44.300Z,0.90
2023-03-11T13:10:16.279Z,0.80
2023-03-11T13:12:45.816Z,0.80
2023-03-11T13:15:36.304Z,1.00
2023-03-11T13:18:14.540Z,0.70
2023-03-11T13:20:51.702Z,1.00
2023-03-11T13:23:40.500Z,1.17
2023-03-11T13:26:33.221Z,1.07
2023-03-11T13:29:40.930Z,0.80
2023-03-11T13:32:27.465Z,0.73
2023-03-11T13:35:04.247Z,0.70
2023-03-11T13:37:42.148Z,0.80
2023-03-11T13:40:24.320Z,0.90
2023-03-11T13:42:53.287Z,0.80
2023-03-11T13:45:28.833Z,0.80
2023-03-11T13:48:00.365Z,1.13
2023-03-11T13:50:31.166Z,1.80
2023-03-11T13:53:00.209Z,1.93
2023-03-11T13:55:33.796Z,1.70
2023-03-11T13:58:01.851Z,1.30
2023-03-11T14:00:31.392Z,1.10
2023-03-11T14:03:02.669Z,2.00
2023-03-11T14:05:32.798Z,1.73
2023-03-11T14:08:13.274Z,1.60
2023-03-11T14:10:52.992Z,3.03
2023-03-11T14:13:21.112Z,1.70
2023-03-11T14:15:53.823Z,2.33
2023-03-11T14:18:30.501Z,1.50
2023-03-11T14:20:58.934Z,1.40
2023-03-11T14:23:29.923Z,1.60
2023-03-11T14:26:07.980Z,1.00
2023-03-11T14:28:40.160Z,1.47
2023-03-11T14:31:08.375Z,1.90
2023-03-11T14:33:36.548Z,1.70
2023-03-11T14:36:06.140Z,3.37
2023-03-11T14:38:34.624Z,10.93
2023-03-11T14:41:05.958Z,2.53
2023-03-11T14:43:36.030Z,2.60
2023-03-11T14:46:04.967Z,1.37
2023-03-11T14:48:35.867Z,1.70
2023-03-11T14:51:05.579Z,2.40
2023-03-11T14:53:37.685Z,1.50
2023-03-11T14:56:09.075Z,1.20
2023-03-11T14:58:38.680Z,1.30
2023-03-11T15:01:10.457Z,1.03
2023-03-11T15:03:40.863Z,1.00
2023-03-11T15:06:10.676Z,1.13
2023-03-11T15:08:44.191Z,1.10
2023-03-11T15:11:25.564Z,1.20
2023-03-11T15:13:54.310Z,1.17
2023-03-11T15:16:30.635Z,1.20
2023-03-11T15:19:01.441Z,1.17
2023-03-11T15:21:30.107Z,1.30
2023-03-11T15:24:02.678Z,1.20
2023-03-11T15:26:33.401Z,1.47
2023-03-11T15:29:02.848Z,1.10
2023-03-11T15:31:36.862Z,1.20
2023-03-11T15:34:26.310Z,1.60
2023-03-11T15:37:03.646Z,1.60
2023-03-11T15:39:48.196Z,1.90
2023-03-11T15:42:21.858Z,1.40
2023-03-11T15:45:13.361Z,1.63
2023-03-11T15:47:41.432Z,1.40
2023-03-11T15:50:24.897Z,1.40
2023-03-11T15:52:53.630Z,1.20
2023-03-11T15:55:21.570Z,1.67
2023-03-11T15:57:52.286Z,2.23
2023-03-11T16:00:22.292Z,1.10
2023-03-11T16:02:50.851Z,1.60
2023-03-11T16:05:20.969Z,1.30
2023-03-11T16:07:49.275Z,1.30
2023-03-11T16:10:19.775Z,1.33
2023-03-11T16:12:47.856Z,2.43
2023-03-11T16:15:24.723Z,1.90
2023-03-11T16:17:53.182Z,1.90
2023-03-11T16:20:22.271Z,1.93
2023-03-11T16:22:51.662Z,1.73
2023-03-11T16:25:23.316Z,2.83
2023-03-11T16:27:52.269Z,1.83
2023-03-11T16:30:22.347Z,2.00
2023-03-11T16:32:50.594Z,1.80
2023-03-11T16:35:18.701Z,1.30
2023-03-11T16:37:47.123Z,1.93
2023-03-11T16:40:17.275Z,1.60
2023-03-11T16:42:45.443Z,1.60
2023-03-11T16:45:13.786Z,1.50
2023-03-11T16:47:43.148Z,1.60
2023-03-11T16:50:12.461Z,1.10
2023-03-11T16:53:40.084Z,1.50
2023-03-11T16:56:08.534Z,1.23
2023-03-11T17:03:41.953Z,1.40
2023-03-11T17:06:12.132Z,1.40
2023-03-11T17:08:40.150Z,1.57
2023-03-11T17:11:15.505Z,1.53
2023-03-11T17:16:25.258Z,1.30
2023-03-11T17:18:53.260Z,1.53
2023-03-11T17:21:22.602Z,1.50
2023-03-11T17:23:51.229Z,1.30
2023-03-11T17:26:19.272Z,1.53
2023-03-11T17:28:47.184Z,1.30
2023-03-11T17:50:44.625Z,1.40
2023-03-11T17:53:12.550Z,1.00
2023-03-11T17:55:41.189Z,1.10
2023-03-11T17:58:09.540Z,1.03
2023-03-11T18:00:37.632Z,1.50
2023-03-11T18:03:05.543Z,1.50
2023-03-11T18:05:33.520Z,1.20
2023-03-11T18:08:02.826Z,1.30
2023-03-11T18:10:30.712Z,1.10
2023-03-11T18:12:58.779Z,1.67
2023-03-11T18:15:26.708Z,1.50
2023-03-11T18:17:56.942Z,1.50
2023-03-11T18:20:24.941Z,1.20
2023-03-11T18:22:53.340Z,1.30
2023-03-11T18:26:07.223Z,1.10
2023-03-11T18:33:48.437Z,2.13
2023-03-11T18:36:30.236Z,1.37
2023-03-11T18:39:01.296Z,2.03
2023-03-11T18:41:33.906Z,1.10
2023-03-11T18:44:02.429Z,1.03
2023-03-11T18:46:32.504Z,1.53
2023-03-11T18:49:23.588Z,1.30
2023-03-11T18:51:51.541Z,1.40
2023-03-11T18:54:23.655Z,1.13
2023-03-11T18:56:53.027Z,0.90
2023-03-11T18:59:20.974Z,1.10
2023-03-11T19:01:50.610Z,1.53
2023-03-11T19:04:18.544Z,1.77
2023-03-11T19:06:55.675Z,1.10
2023-03-11T19:09:23.564Z,0.97
2023-03-11T19:11:52.872Z,1.47
2023-03-11T19:14:20.787Z,1.23
2023-03-11T19:16:49.028Z,1.10
2023-03-11T19:19:16.941Z,1.30
2023-03-11T19:21:45.753Z,1.10
2023-03-11T19:24:13.776Z,1.10
2023-03-11T19:26:45.092Z,1.40
2023-03-11T19:29:15.522Z,0.90
2023-03-11T19:31:44.164Z,1.23
2023-03-11T19:34:12.379Z,0.80
2023-03-11T19:36:40.575Z,1.00
2023-03-11T19:39:08.711Z,1.10
2023-03-11T19:41:36.655Z,1.23
2023-03-11T19:44:04.640Z,0.97
2023-03-11T19:46:34.893Z,1.20
2023-03-11T19:49:03.265Z,1.10
2023-03-11T19:51:46.488Z,1.43
2023-03-11T19:54:17.191Z,1.30
2023-03-11T19:56:45.172Z,1.23
2023-03-11T19:59:13.192Z,1.80
2023-03-11T20:01:43.273Z,1.97
2023-03-11T20:04:11.544Z,1.60
2023-03-11T20:06:39.555Z,1.47
2023-03-11T20:09:07.897Z,1.50
2023-03-11T20:11:39.142Z,1.40
2023-03-11T20:14:07.491Z,1.50
2023-03-11T20:16:35.430Z,1.40
2023-03-11T20:19:05.041Z,1.60
2023-03-11T20:21:33.319Z,1.30
2023-03-11T20:24:01.642Z,1.00
2023-03-11T20:26:29.601Z,1.30
2023-03-11T20:28:58.232Z,1.13
2023-03-11T20:31:27.406Z,1.20
2023-03-11T20:33:56.391Z,1.13
2023-03-11T20:36:27.808Z,1.17
2023-03-11T20:38:56.573Z,1.83
2023-03-11T20:41:25.375Z,1.17
2023-03-11T20:43:54.302Z,1.67
2023-03-11T20:46:22.365Z,1.30
2023-03-11T20:48:50.405Z,1.10
2023-03-11T20:51:20.789Z,1.53
2023-03-11T20:53:50.371Z,1.70
2023-03-11T20:56:20.468Z,1.63
2023-03-11T20:58:50.979Z,1.80
2023-03-11T21:01:20.600Z,1.63
2023-03-11T21:03:49.057Z,1.10
2023-03-11T21:06:18.729Z,1.20
2023-03-11T21:08:47.098Z,1.00
2023-03-11T21:11:16.916Z,1.30
2023-03-11T21:13:44.901Z,1.57
2023-03-11T21:16:12.948Z,1.07
2023-03-11T21:18:41.197Z,1.10
2023-03-11T21:21:11.748Z,1.13
2023-03-11T21:23:39.950Z,1.43
2023-03-11T21:26:08.666Z,1.10
2023-03-11T21:28:39.920Z,1.03
2023-03-11T21:31:11.566Z,1.70
2023-03-11T21:33:40.276Z,3.23
2023-03-11T21:36:09.642Z,2.00
2023-03-11T21:38:37.922Z,1.60
2023-03-11T21:41:07.459Z,1.80
2023-03-11T21:43:37.581Z,1.80
2023-03-11T21:46:06.589Z,1.60
2023-03-11T21:48:35.450Z,1.60
2023-03-11T21:51:03.885Z,1.50
2023-03-11T21:53:32.494Z,1.33
2023-03-11T21:56:01.399Z,1.50
2023-03-11T21:58:29.330Z,1.70
2023-03-11T22:00:58.755Z,2.10
2023-03-11T22:03:26.987Z,1.70
2023-03-11T22:05:58.791Z,1.73
2023-03-11T22:08:27.519Z,1.73
2023-03-11T22:10:56.049Z,1.47
2023-03-11T22:13:24.729Z,1.63
2023-03-11T22:15:53.101Z,1.60
2023-03-11T22:18:22.622Z,1.80
2023-03-11T22:20:50.571Z,1.70
2023-03-11T22:23:18.679Z,1.60
2023-03-11T22:25:46.589Z,1.47
2023-03-11T22:28:14.848Z,1.50
2023-03-11T22:30:42.781Z,1.77
2023-03-11T22:33:10.724Z,1.80
2023-03-11T22:35:40.111Z,1.80
2023-03-11T22:38:08.349Z,1.50
2023-03-11T22:40:36.314Z,1.83
2023-03-11T22:43:04.247Z,1.77
2023-03-11T22:45:32.216Z,1.63
2023-03-11T22:48:00.511Z,1.90
2023-03-11T22:50:28.491Z,1.80
2023-03-11T22:52:57.814Z,1.23
2023-03-11T22:55:25.880Z,1.43
2023-03-11T22:57:53.825Z,1.50
2023-03-11T23:00:23.327Z,2.10
2023-03-11T23:02:54.541Z,1.47
2023-03-11T23:05:22.901Z,1.80
2023-03-11T23:07:51.459Z,1.70
2023-03-11T23:10:21.955Z,1.70
2023-03-11T23:12:50.352Z,1.50
2023-03-11T23:15:19.745Z,2.00
2023-03-11T23:17:47.833Z,1.87
2023-03-11T23:20:16.686Z,1.60
2023-03-11T23:22:44.936Z,1.67
2023-03-11T23:25:15.179Z,2.00
2023-03-11T23:27:45.793Z,2.27
2023-03-11T23:30:16.039Z,2.23
2023-03-11T23:32:44.583Z,2.10
2023-03-11T23:35:12.953Z,1.90
2023-03-11T23:37:40.989Z,1.80
2023-03-11T23:40:10.962Z,2.13
2023-03-11T23:42:38.942Z,1.70
2023-03-11T23:45:10.214Z,1.87
2023-03-11T23:47:38.102Z,2.30
2023-03-11T23:50:07.142Z,1.97
2023-03-11T23:52:35.127Z,1.67
2023-03-11T23:55:03.309Z,1.80
2023-03-11T23:57:31.214Z,2.33
2023-03-11T23:59:59.254Z,1.83
